Time;durP1;ratioP1;P1;durP2;ratioP2;P2;SDS_P1;SDS_P2;PMS_P1;PMS_P2;Temp;Humidity;BMP_temperature;BMP_pressure;BME280_temperature;BME280_humidity;BME280_pressure;Samples;Min_cycle;Max_cycle;Signal;HPM_P1;HPM_P2
2022/10/14 04:00:12;;;;;;;22.70;8.53;;;12.80;99.90;;;;;;6182018;22;21595;31
2022/10/14 04:02:41;;;;;;;14.10;8.07;;;12.80;99.90;;;;;;6240326;23;20445;-70
2022/10/14 04:05:09;;;;;;;17.83;10.03;;;12.80;99.90;;;;;;6240981;23;20513;-70
2022/10/14 04:07:35;;;;;;;15.02;7.30;;;12.80;99.90;;;;;;6242274;23;20431;-70
2022/10/14 04:10:02;;;;;;;7.73;5.57;;;12.80;99.90;;;;;;6242593;23;20183;-71
2022/10/14 04:12:29;;;;;;;17.03;7.63;;;12.80;99.90;;;;;;6242830;23;20460;-70
2022/10/14 04:14:56;;;;;;;17.47;7.07;;;12.80;99.90;;;;;;6242167;23;20426;-70
2022/10/14 04:17:23;;;;;;;16.00;7.10;;;12.80;99.90;;;;;;6241494;23;20422;-71
2022/10/14 04:19:53;;;;;;;13.90;9.00;;;12.80;99.90;;;;;;6242655;22;20456;-68
2022/10/14 04:22:21;;;;;;;16.07;7.40;;;12.80;99.90;;;;;;6242015;23;20430;-67
2022/10/14 04:24:48;;;;;;;11.00;8.40;;;12.80;99.90;;;;;;6241380;23;20516;-66
2022/10/14 04:27:15;;;;;;;8.10;5.30;;;12.80;99.90;;;;;;6242227;23;20423;-68
2022/10/14 04:29:41;;;;;;;11.10;8.83;;;12.80;99.90;;;;;;6243944;22;20536;-67
2022/10/14 04:32:08;;;;;;;17.80;8.00;;;12.80;99.90;;;;;;6243238;23;20421;-67
2022/10/14 04:34:35;;;;;;;14.87;8.50;;;12.80;99.90;;;;;;6244089;23;20425;-68
2022/10/14 04:37:03;;;;;;;7.07;6.23;;;12.80;99.90;;;;;;6243924;23;20429;-68
2022/10/14 04:39:29;;;;;;;13.33;8.47;;;12.80;99.90;;;;;;6243607;23;20426;-68
2022/10/14 04:41:56;;;;;;;14.13;7.60;;;12.80;99.90;;;;;;6244205;23;20515;-68
2022/10/14 04:44:23;;;;;;;17.63;9.03;;;12.80;99.90;;;;;;6243797;23;20485;-68
2022/10/14 04:46:50;;;;;;;17.10;9.00;;;12.80;99.90;;;;;;6243226;23;20430;-68
2022/10/14 04:49:16;;;;;;;15.48;7.85;;;12.80;99.90;;;;;;6243927;23;20422;-68
2022/10/14 04:51:43;;;;;;;14.27;8.93;;;12.80;99.90;;;;;;6241746;22;20208;-68
2022/10/14 04:54:11;;;;;;;12.30;7.30;;;12.80;99.90;;;;;;6242469;23;20484;-68
2022/10/14 04:56:38;;;;;;;10.10;6.60;;;12.80;99.90;;;;;;6244024;23;20530;-68
2022/10/14 04:59:05;;;;;;;14.03;7.43;;;12.80;99.90;;;;;;6244201;23;20456;-67
2022/10/14 05:01:32;;;;;;;10.97;7.50;;;12.80;99.90;;;;;;6243886;22;20449;-67
2022/10/14 05:03:59;;;;;;;12.93;7.00;;;12.80;99.90;;;;;;6243716;23;20407;-69
2022/10/14 05:06:26;;;;;;;16.23;7.37;;;12.80;99.90;;;;;;6242315;23;20432;-67
2022/10/14 05:08:52;;;;;;;16.92;9.40;;;12.80;99.90;;;;;;6242556;23;20421;-67
2022/10/14 05:11:20;;;;;;;16.40;10.47;;;12.80;99.90;;;;;;6243827;22;20225;-68
2022/10/14 05:13:47;;;;;;;17.97;9.27;;;12.80;99.90;;;;;;6243444;23;20418;-68
2022/10/14 05:16:14;;;;;;;14.77;8.87;;;12.80;99.90;;;;;;6243595;23;21060;-67
2022/10/14 05:18:40;;;;;;;70.90;33.40;;;12.80;99.90;;;;;;6243177;23;20905;-68
2022/10/14 05:21:07;;;;;;;43.87;22.77;;;12.80;99.90;;;;;;6242371;22;20457;-68
2022/10/14 05:23:33;;;;;;;23.45;13.00;;;12.80;99.90;;;;;;6242365;23;20446;-68
2022/10/14 05:26:00;;;;;;;22.20;10.70;;;12.80;99.90;;;;;;6243905;23;20237;-68
2022/10/14 05:28:28;;;;;;;18.90;12.83;;;12.80;99.90;;;;;;6244024;23;20752;-69
2022/10/14 05:30:55;;;;;;;21.60;11.67;;;12.80;99.90;;;;;;6243514;22;20441;-68
2022/10/14 05:33:22;;;;;;;32.37;17.90;;;12.80;99.90;;;;;;6243777;23;20548;-68
2022/10/14 05:35:48;;;;;;;34.73;21.30;;;12.80;99.90;;;;;;6242355;23;20764;-69
2022/10/14 05:38:15;;;;;;;29.27;17.03;;;12.80;99.90;;;;;;6241768;23;20422;-69
2022/10/14 05:40:42;;;;;;;13.60;9.00;;;12.80;99.90;;;;;;6240870;22;20461;-70
2022/10/14 05:43:09;;;;;;;19.97;9.10;;;12.80;99.90;;;;;;6241697;23;20980;-69
2022/10/14 05:45:37;;;;;;;16.93;8.90;;;12.80;99.90;;;;;;6243090;23;20792;-68
2022/10/14 05:48:04;;;;;;;21.10;11.40;;;12.80;99.90;;;;;;6242778;23;20489;-69
2022/10/14 05:50:30;;;;;;;44.00;18.20;;;12.90;99.90;;;;;;6242704;22;20450;-70
2022/10/14 05:52:57;;;;;;;29.80;16.50;;;12.90;99.90;;;;;;6243007;23;20796;-68
2022/10/14 05:55:24;;;;;;;18.60;10.90;;;12.80;99.90;;;;;;6243159;23;20429;-69
2022/10/14 05:57:55;;;;;;;21.43;11.20;;;12.90;99.90;;;;;;6242866;23;20422;-69
2022/10/14 06:00:22;;;;;;;23.70;11.40;;;12.90;99.90;;;;;;6243081;22;20441;-69
2022/10/14 06:02:50;;;;;;;22.13;9.47;;;12.90;99.90;;;;;;6243363;23;20902;-69
2022/10/14 06:05:17;;;;;;;22.17;12.17;;;12.90;99.90;;;;;;6242786;23;20422;-69
2022/10/14 06:07:43;;;;;;;15.07;8.27;;;12.90;99.90;;;;;;6242570;23;20425;-68
2022/10/14 06:10:10;;;;;;;23.83;10.10;;;12.90;99.90;;;;;;6242983;22;20465;-70
2022/10/14 06:12:37;;;;;;;16.10;8.07;;;12.90;99.90;;;;;;6243011;23;20419;-70
2022/10/14 06:15:05;;;;;;;16.73;8.47;;;12.90;99.90;;;;;;6243190;23;20422;-69
2022/10/14 06:17:31;;;;;;;16.57;10.37;;;12.90;99.90;;;;;;6242762;23;20884;-69
2022/10/14 06:19:59;;;;;;;19.80;9.67;;;12.90;99.90;;;;;;6243589;22;20883;-68
2022/10/14 06:22:27;;;;;;;22.17;9.63;;;12.90;99.90;;;;;;6242219;23;20540;-68
2022/10/14 06:24:54;;;;;;;16.17;9.80;;;12.90;99.90;;;;;;6242544;23;20906;-69
2022/10/14 06:27:20;;;;;;;19.07;8.40;;;12.90;99.90;;;;;;6244515;23;20426;-70
2022/10/14 06:29:47;;;;;;;15.53;8.80;;;12.90;99.90;;;;;;6242489;22;20422;-70
2022/10/14 06:32:14;;;;;;;23.70;9.83;;;12.90;99.90;;;;;;6243385;23;20430;-68
2022/10/14 06:34:40;;;;;;;21.70;8.13;;;12.90;99.90;;;;;;6241312;23;20442;-69
2022/10/14 06:37:08;;;;;;;18.70;8.70;;;12.90;99.90;;;;;;6241426;23;20426;-70
2022/10/14 06:39:35;;;;;;;19.17;9.83;;;12.90;99.90;;;;;;6242694;22;20723;-70
2022/10/14 06:42:02;;;;;;;14.17;8.30;;;12.90;99.90;;;;;;6240590;23;20426;-69
2022/10/14 06:44:29;;;;;;;21.77;8.10;;;12.90;99.90;;;;;;6242373;23;20793;-69
2022/10/14 06:46:56;;;;;;;15.90;9.10;;;12.90;99.90;;;;;;6242999;23;20920;-70
2022/10/14 06:49:22;;;;;;;16.43;8.57;;;12.90;99.90;;;;;;6242936;23;20449;-69
2022/10/14 06:51:49;;;;;;;19.07;12.60;;;12.90;99.90;;;;;;6242174;22;20442;-69
2022/10/14 06:54:17;;;;;;;33.53;13.47;;;12.90;99.90;;;;;;6242698;23;20426;-70
2022/10/14 06:56:44;;;;;;;26.23;13.83;;;12.90;99.90;;;;;;6242227;23;20429;-70
2022/10/14 06:59:10;;;;;;;29.87;16.00;;;13.00;99.90;;;;;;6242912;23;20494;-68
2022/10/14 07:01:37;;;;;;;40.47;12.32;;;13.00;99.90;;;;;;6242625;22;20471;-69
2022/10/14 07:04:04;;;;;;;24.27;14.17;;;13.00;99.90;;;;;;6241926;23;20198;-70
2022/10/14 07:06:31;;;;;;;22.93;12.50;;;13.00;99.90;;;;;;6242717;23;20575;-70
2022/10/14 07:08:58;;;;;;;18.33;9.07;;;13.00;99.90;;;;;;6242798;23;20433;-69
2022/10/14 07:11:26;;;;;;;25.40;9.53;;;13.00;99.90;;;;;;6242542;22;20450;-69
2022/10/14 07:13:54;;;;;;;23.67;11.37;;;13.00;99.90;;;;;;6241514;23;20426;-68
2022/10/14 07:16:21;;;;;;;19.90;11.97;;;13.00;99.90;;;;;;6238638;23;20889;-68
2022/10/14 07:18:48;;;;;;;33.13;14.30;;;13.00;99.90;;;;;;6242568;23;20423;-69
2022/10/14 07:21:15;;;;;;;27.03;12.47;;;13.10;99.90;;;;;;6240886;22;20778;-67
2022/10/14 07:23:41;;;;;;;22.80;9.50;;;13.10;99.90;;;;;;6241640;23;20952;-70
2022/10/14 07:26:08;;;;;;;18.33;8.60;;;13.10;99.90;;;;;;6243011;23;20422;-69
2022/10/14 07:28:36;;;;;;;23.00;11.57;;;13.20;99.90;;;;;;6242546;23;21090;-68
2022/10/14 07:31:05;;;;;;;12.53;8.53;;;13.20;99.90;;;;;;6243047;22;20448;-69
2022/10/14 07:33:32;;;;;;;18.93;8.80;;;13.30;99.90;;;;;;6241589;23;20423;-69
2022/10/14 07:36:01;;;;;;;25.87;12.43;;;13.30;99.90;;;;;;6242601;23;20521;-69
2022/10/14 07:38:28;;;;;;;28.97;13.00;;;13.40;99.90;;;;;;6241696;23;20430;-68
2022/10/14 07:41:00;;;;;;;19.80;9.13;;;13.40;99.90;;;;;;6242725;22;20481;-70
2022/10/14 07:43:27;;;;;;;14.70;10.17;;;13.50;99.90;;;;;;6241829;23;20742;-70
2022/10/14 07:45:59;;;;;;;10.83;7.70;;;13.50;99.90;;;;;;6242038;23;20422;-70
2022/10/14 07:48:28;;;;;;;25.53;12.03;;;13.50;99.90;;;;;;6242522;23;20411;-69
2022/10/14 07:50:54;;;;;;;18.83;11.40;;;13.60;99.90;;;;;;6240095;22;20506;-69
2022/10/14 07:53:21;;;;;;;18.03;9.93;;;13.60;99.90;;;;;;6240715;23;20426;-68
2022/10/14 07:55:51;;;;;;;15.67;10.13;;;13.70;99.90;;;;;;6242907;23;20757;-69
2022/10/14 07:58:19;;;;;;;24.87;13.30;;;13.70;99.90;;;;;;6242969;23;20423;-68
2022/10/14 08:00:46;;;;;;;20.77;11.17;;;13.70;99.90;;;;;;6242327;22;20454;-68
2022/10/14 08:03:14;;;;;;;24.53;13.60;;;13.70;99.90;;;;;;6243100;23;20453;-69
2022/10/14 08:05:41;;;;;;;43.97;18.87;;;13.70;99.90;;;;;;6241681;23;20434;-69
2022/10/14 08:08:08;;;;;;;22.67;11.43;;;13.70;99.90;;;;;;6242912;23;20908;-69
2022/10/14 08:10:35;;;;;;;26.67;12.53;;;13.80;99.90;;;;;;6243666;22;20944;-69
2022/10/14 08:13:02;;;;;;;19.50;13.60;;;13.90;99.90;;;;;;6243704;23;20418;-68
2022/10/14 08:15:32;;;;;;;24.03;13.07;;;14.00;99.90;;;;;;6244711;23;20437;-68
2022/10/14 08:17:59;;;;;;;16.83;9.93;;;14.00;99.90;;;;;;6244406;23;20452;-69
2022/10/14 08:20:27;;;;;;;20.33;11.57;;;14.10;99.90;;;;;;6241410;22;20450;-69
2022/10/14 08:22:54;;;;;;;16.13;12.20;;;14.10;99.90;;;;;;6242591;23;20434;-68
2022/10/14 08:25:21;;;;;;;14.40;9.30;;;14.00;99.90;;;;;;6244348;23;20467;-68
2022/10/14 08:27:49;;;;;;;17.53;9.80;;;14.00;99.90;;;;;;6244523;23;20446;-68
2022/10/14 08:30:16;;;;;;;15.40;10.87;;;14.00;99.90;;;;;;6244753;22;20443;-69
2022/10/14 08:32:43;;;;;;;18.20;12.60;;;14.10;99.90;;;;;;6243448;23;20427;-67
2022/10/14 08:35:10;;;;;;;14.13;11.27;;;14.10;99.90;;;;;;6243522;23;20430;-68
2022/10/14 08:37:38;;;;;;;13.90;8.63;;;14.10;99.90;;;;;;6242932;23;20436;-66
2022/10/14 08:40:07;;;;;;;18.40;11.50;;;14.10;99.90;;;;;;6244122;22;20446;-69
2022/10/14 08:42:43;;;;;;;11.10;8.37;;;14.10;99.90;;;;;;6244063;23;20424;-68
2022/10/14 08:45:14;;;;;;;16.80;8.83;;;14.00;99.90;;;;;;6253549;23;20423;-67
2022/10/14 08:47:44;;;;;;;13.30;8.27;;;14.00;99.90;;;;;;6244241;23;20403;-67
2022/10/14 08:50:21;;;;;;;13.07;7.97;;;13.90;99.90;;;;;;6243423;22;20438;-68
2022/10/14 08:52:55;;;;;;;17.13;9.63;;;13.90;99.90;;;;;;6243408;23;20434;-68
2022/10/14 08:55:28;;;;;;;14.07;9.13;;;13.90;99.90;;;;;;6243715;23;20406;-69
2022/10/14 08:57:59;;;;;;;22.40;8.90;;;13.90;99.90;;;;;;6244118;23;20712;-69
2022/10/14 09:00:28;;;;;;;14.30;7.87;;;13.90;99.90;;;;;;6244229;22;20439;-68
2022/10/14 09:02:55;;;;;;;15.13;9.53;;;13.90;99.90;;;;;;6243538;23;20483;-69
2022/10/14 09:05:23;;;;;;;14.33;8.33;;;14.00;99.90;;;;;;6242759;23;20426;-67
2022/10/14 09:07:54;;;;;;;9.40;7.00;;;14.10;99.90;;;;;;6244238;23;20431;-69
2022/10/14 09:10:28;;;;;;;14.43;8.40;;;14.20;99.90;;;;;;6244062;22;20450;-69
2022/10/14 09:12:58;;;;;;;11.13;7.90;;;14.30;99.90;;;;;;6244199;23;20407;-68
2022/10/14 09:15:31;;;;;;;13.63;9.67;;;14.40;99.90;;;;;;6243973;23;20765;-69
2022/10/14 09:18:05;;;;;;;11.50;8.20;;;14.50;99.90;;;;;;6244015;23;20408;-67
2022/10/14 09:20:32;;;;;;;9.67;6.97;;;14.60;99.90;;;;;;6243255;22;20454;-68
2022/10/14 09:23:13;;;;;;;12.43;7.20;;;14.60;99.90;;;;;;6241424;23;20933;-69
2022/10/14 09:25:45;;;;;;;10.70;7.60;;;14.50;99.90;;;;;;6242524;23;20407;-68
2022/10/14 09:28:11;;;;;;;11.43;6.77;;;14.60;99.90;;;;;;6242701;23;20416;-69
2022/10/14 09:30:39;;;;;;;10.90;6.70;;;14.80;99.90;;;;;;6242891;22;20454;-68
2022/10/14 09:33:12;;;;;;;12.87;6.67;;;14.90;99.90;;;;;;6243220;23;20577;-68
2022/10/14 09:35:41;;;;;;;12.00;6.33;;;14.90;99.90;;;;;;6243413;23;20450;-68
2022/10/14 09:38:11;;;;;;;16.43;7.30;;;14.90;99.90;;;;;;6243083;23;20428;-69
2022/10/14 09:40:40;;;;;;;8.23;6.97;;;14.80;99.90;;;;;;6242989;22;20526;-69
2022/10/14 09:43:15;;;;;;;6.13;4.90;;;14.70;99.90;;;;;;6243116;23;20542;-69
2022/10/14 09:45:52;;;;;;;7.43;5.43;;;14.70;99.90;;;;;;6242506;23;20782;-69
2022/10/14 09:48:30;;;;;;;6.30;5.57;;;14.60;99.90;;;;;;6243515;23;20440;-68
2022/10/14 09:50:59;;;;;;;6.87;5.30;;;14.60;99.90;;;;;;6243058;22;20443;-68
2022/10/14 09:53:29;;;;;;;6.03;4.10;;;14.70;99.90;;;;;;6242366;23;20430;-69
2022/10/14 09:55:58;;;;;;;7.40;6.67;;;14.70;99.90;;;;;;6243184;23;20423;-69
2022/10/14 09:58:35;;;;;;;6.07;4.90;;;14.90;99.90;;;;;;6242953;23;20425;-67
2022/10/14 10:01:02;;;;;;;7.13;5.87;;;14.90;99.90;;;;;;6243927;22;20450;-69
2022/10/14 10:03:32;;;;;;;6.57;5.10;;;14.90;99.90;;;;;;6242187;23;20966;-68
2022/10/14 10:06:05;;;;;;;5.93;4.90;;;14.90;99.90;;;;;;6243007;23;20423;-70
2022/10/14 10:08:34;;;;;;;12.00;5.80;;;14.90;99.90;;;;;;6243409;23;20411;-69
2022/10/14 10:11:04;;;;;;;6.93;6.30;;;15.00;99.90;;;;;;6242596;22;20448;-69
2022/10/14 10:13:43;;;;;;;7.47;4.70;;;15.10;99.90;;;;;;6242960;23;20476;-67
2022/10/14 10:16:20;;;;;;;5.10;4.60;;;15.10;99.90;;;;;;6243375;23;20502;-71
2022/10/14 10:18:47;;;;;;;7.13;6.40;;;15.20;99.90;;;;;;6243233;23;20427;-74
2022/10/14 10:21:18;;;;;;;6.20;5.60;;;15.30;99.90;;;;;;6242346;22;20980;-69
2022/10/14 10:23:57;;;;;;;14.90;10.63;;;15.40;99.90;;;;;;6242984;23;20434;-70
2022/10/14 10:26:28;;;;;;;5.67;3.90;;;15.50;99.90;;;;;;6242388;23;20406;-70
2022/10/14 10:28:56;;;;;;;7.10;6.30;;;15.60;99.90;;;;;;6241729;23;20864;-70
2022/10/14 10:32:01;;;;;;;4.87;3.53;;;15.70;99.90;;;;;;6241587;22;20788;-70
2022/10/14 10:35:03;;;;;;;7.10;4.80;;;15.80;99.90;;;;;;6195488;23;20940;-70
2022/10/14 10:37:33;;;;;;;6.50;4.87;;;15.80;99.90;;;;;;6241876;23;20420;-69
2022/10/14 10:40:30;;;;;;;9.87;5.87;;;15.80;99.90;;;;;;6243247;22;20469;-70
2022/10/14 10:43:30;;;;;;;13.77;4.87;;;16.00;99.90;;;;;;6242250;23;20520;-70
2022/10/14 10:46:12;;;;;;;4.53;4.13;;;16.20;99.90;;;;;;6243327;23;20409;-70
2022/10/14 10:48:45;;;;;;;6.93;4.80;;;16.30;99.90;;;;;;6243540;23;20414;-68
2022/10/14 10:51:16;;;;;;;6.80;5.00;;;16.20;99.90;;;;;;6242877;22;20463;-70
2022/10/14 10:54:10;;;;;;;4.97;4.47;;;16.10;99.90;;;;;;6242364;23;20403;-70
2022/10/14 10:56:43;;;;;;;3.17;2.97;;;16.00;99.90;;;;;;6241825;23;20422;-71
2022/10/14 10:59:38;;;;;;;5.27;4.17;;;15.90;99.90;;;;;;6241810;23;20406;-71
2022/10/14 11:02:32;;;;;;;6.97;5.20;;;15.80;99.90;;;;;;6242773;23;20416;-69
2022/10/14 11:05:08;;;;;;;6.50;5.07;;;15.80;99.90;;;;;;6243215;23;20485;-70
2022/10/14 11:13:44;;;;;;;3.97;3.50;;;15.60;99.90;;;;;;6187231;23;20461;-69
2022/10/14 11:16:15;;;;;;;4.63;4.10;;;15.70;99.90;;;;;;6242393;23;20491;-69
2022/10/14 11:18:48;;;;;;;4.17;3.70;;;15.80;99.90;;;;;;6242460;23;20405;-69
2022/10/14 11:21:24;;;;;;;4.10;3.70;;;15.90;99.90;;;;;;6242134;22;20452;-70
2022/10/14 11:24:06;;;;;;;5.00;4.13;;;15.90;99.90;;;;;;6242226;23;20428;-69
2022/10/14 11:26:59;;;;;;;4.30;4.00;;;16.00;99.90;;;;;;6241939;23;20892;-69
2022/10/14 11:29:49;;;;;;;2.93;2.70;;;16.10;99.90;;;;;;6238694;23;20448;-69
2022/10/14 11:32:23;;;;;;;3.10;2.77;;;16.30;99.90;;;;;;6242785;23;20402;-71
2022/10/14 11:35:04;;;;;;;3.97;3.67;;;16.40;99.90;;;;;;6243105;23;20409;-70
2022/10/14 11:37:43;;;;;;;3.50;3.20;;;16.50;99.90;;;;;;6241613;23;20413;-69
2022/10/14 11:40:17;;;;;;;5.80;3.83;;;16.50;99.90;;;;;;6242401;22;20815;-70
2022/10/14 11:42:57;;;;;;;2.57;2.47;;;16.50;99.90;;;;;;6242596;23;20401;-69
2022/10/14 11:45:49;;;;;;;2.30;2.20;;;16.50;99.90;;;;;;6241706;23;20428;-69
2022/10/14 11:48:25;;;;;;;2.23;2.13;;;16.40;99.90;;;;;;6238859;23;20818;-69
2022/10/14 11:50:57;;;;;;;2.73;2.53;;;16.40;99.90;;;;;;6242222;22;20440;-69
2022/10/14 11:53:39;;;;;;;3.70;3.33;;;16.40;99.90;;;;;;6241963;23;20400;-69
2022/10/14 11:56:14;;;;;;;4.20;2.83;;;16.50;99.90;;;;;;6242823;23;20405;-68
2022/10/14 11:58:44;;;;;;;1.53;1.53;;;16.60;99.90;;;;;;6241724;23;20413;-69
2022/10/14 12:01:16;;;;;;;3.03;2.20;;;16.60;99.90;;;;;;6242043;22;20449;-70
2022/10/14 12:03:51;;;;;;;3.10;2.87;;;16.70;99.90;;;;;;6242633;23;20402;-70
2022/10/14 12:06:22;;;;;;;3.33;3.10;;;16.70;99.90;;;;;;6241980;23;20404;-68
2022/10/14 12:08:55;;;;;;;2.80;2.60;;;16.70;99.90;;;;;;6242972;23;20430;-69
2022/10/14 12:11:29;;;;;;;3.27;2.97;;;16.70;99.90;;;;;;6242890;22;20449;-70
2022/10/14 12:14:04;;;;;;;3.07;2.87;;;16.80;99.90;;;;;;6241855;23;20466;-70
2022/10/14 12:16:33;;;;;;;2.73;2.53;;;16.80;99.90;;;;;;6242569;23;20417;-70
2022/10/14 12:19:00;;;;;;;2.83;2.47;;;16.80;99.90;;;;;;6242242;23;20433;-69
2022/10/14 12:21:34;;;;;;;3.97;3.10;;;16.80;99.90;;;;;;6241815;22;20448;-70
2022/10/14 12:24:05;;;;;;;3.43;2.40;;;16.70;99.90;;;;;;6241990;23;20411;-70
2022/10/14 12:26:47;;;;;;;3.43;3.13;;;16.60;99.90;;;;;;6242915;23;20413;-69
2022/10/14 12:29:15;;;;;;;2.53;2.27;;;16.60;99.90;;;;;;6241196;23;20445;-71
2022/10/14 12:31:49;;;;;;;2.13;2.03;;;16.60;99.90;;;;;;6241987;22;20512;-69
2022/10/14 12:34:27;;;;;;;3.30;3.03;;;16.70;99.90;;;;;;6242252;23;20401;-69
2022/10/14 12:36:54;;;;;;;3.17;2.97;;;16.80;99.90;;;;;;6241560;23;20468;-69
2022/10/14 12:39:34;;;;;;;3.17;3.03;;;16.90;99.90;;;;;;6241563;23;20426;-69
2022/10/14 12:42:05;;;;;;;2.30;2.20;;;16.90;99.90;;;;;;6241916;23;20529;-68
2022/10/14 12:44:36;;;;;;;4.87;4.47;;;16.90;99.90;;;;;;6241954;23;20519;-69
2022/10/14 12:47:05;;;;;;;2.80;2.60;;;16.80;99.90;;;;;;6242413;23;20422;-69
2022/10/14 12:49:33;;;;;;;3.83;3.53;;;16.70;99.90;;;;;;6243294;23;20441;-70
2022/10/14 12:52:02;;;;;;;3.07;2.90;;;16.60;99.90;;;;;;6243057;22;20446;-69
2022/10/14 12:54:30;;;;;;;3.43;3.23;;;16.70;99.90;;;;;;6242874;23;20929;-68
2022/10/14 12:57:00;;;;;;;3.70;3.40;;;16.70;99.90;;;;;;6243820;23;20421;-69
2022/10/14 12:59:30;;;;;;;1.90;1.80;;;16.90;99.90;;;;;;6243487;23;20685;-68
2022/10/14 13:02:00;;;;;;;2.57;2.27;;;16.60;99.90;;;;;;6243329;22;20446;-68
2022/10/14 13:04:29;;;;;;;3.07;2.87;;;16.50;99.90;;;;;;6243210;23;20441;-68
2022/10/14 13:07:30;;;;;;;2.60;2.40;;;16.50;99.90;;;;;;6243634;23;20423;-68
2022/10/14 13:09:58;;;;;;;2.63;2.43;;;16.40;99.90;;;;;;6244375;22;20445;-68
2022/10/14 13:12:42;;;;;;;2.40;2.30;;;16.40;99.90;;;;;;6243097;23;20431;-68
2022/10/14 13:15:47;;;;;;;4.30;2.50;;;16.40;99.90;;;;;;6244108;23;20396;-68
2022/10/14 13:18:47;;;;;;;2.17;2.07;;;16.40;99.90;;;;;;6243485;23;20401;-69
2022/10/14 13:21:29;;;;;;;2.33;2.23;;;16.40;99.90;;;;;;6242435;22;21071;-67
2022/10/14 13:23:59;;;;;;;2.53;2.30;;;16.40;99.90;;;;;;6243053;23;20495;-68
2022/10/14 13:26:35;;;;;;;2.77;2.57;;;16.40;99.90;;;;;;6242849;23;20447;-69
2022/10/14 13:29:16;;;;;;;3.50;3.20;;;16.40;99.90;;;;;;6244368;23;20406;-70
2022/10/14 13:31:52;;;;;;;3.80;2.83;;;16.40;99.90;;;;;;6243495;22;20441;-68
2022/10/14 13:34:32;;;;;;;1.90;1.80;;;16.50;99.90;;;;;;6242575;23;20444;-68
2022/10/14 13:37:17;;;;;;;2.93;2.70;;;16.50;99.90;;;;;;6243053;23;20423;-68
2022/10/14 13:39:43;;;;;;;4.27;3.73;;;16.50;99.90;;;;;;6242525;22;20412;-69
2022/10/14 13:42:14;;;;;;;2.90;2.67;;;16.50;99.90;;;;;;6243825;23;20517;-68
2022/10/14 13:44:40;;;;;;;3.27;3.03;;;16.50;99.90;;;;;;6243065;23;20428;-68
2022/10/14 13:47:12;;;;;;;3.30;3.00;;;16.50;99.90;;;;;;6243782;23;20446;-69
2022/10/14 13:49:40;;;;;;;2.33;2.23;;;16.50;99.90;;;;;;6243251;22;20463;-69
2022/10/14 13:52:17;;;;;;;2.77;2.60;;;16.40;99.90;;;;;;6242869;23;20445;-68
2022/10/14 13:54:44;;;;;;;3.23;2.87;;;16.40;99.90;;;;;;6242802;23;20440;-69
2022/10/14 13:57:12;;;;;;;2.63;2.43;;;16.40;99.90;;;;;;6243623;23;20536;-69
2022/10/14 13:59:40;;;;;;;4.23;3.27;;;16.40;99.90;;;;;;6243538;22;20428;-70
2022/10/14 14:02:14;;;;;;;3.53;3.20;;;16.40;99.90;;;;;;6242660;23;20429;-68
2022/10/14 14:04:41;;;;;;;3.87;2.33;;;16.40;99.90;;;;;;6240873;23;20441;-69
2022/10/14 14:07:17;;;;;;;2.70;2.50;;;16.40;99.90;;;;;;6242993;23;20433;-67
2022/10/14 14:09:49;;;;;;;2.83;2.60;;;16.40;99.90;;;;;;6241658;22;20432;-68
2022/10/14 14:12:17;;;;;;;4.40;3.83;;;16.40;99.90;;;;;;6243209;23;20410;-68
2022/10/14 14:14:45;;;;;;;3.03;2.93;;;16.30;99.90;;;;;;6242927;23;20418;-68
2022/10/14 14:17:16;;;;;;;3.33;3.03;;;16.40;99.90;;;;;;6243329;23;20472;-68
2022/10/14 14:19:45;;;;;;;3.87;3.53;;;16.40;99.90;;;;;;6242770;22;20738;-67
2022/10/14 14:22:18;;;;;;;2.87;2.63;;;16.30;99.90;;;;;;6242936;23;20444;-68
2022/10/14 14:24:45;;;;;;;3.43;3.13;;;16.30;99.90;;;;;;6242101;23;20924;-68
2022/10/14 14:27:14;;;;;;;4.10;3.83;;;16.40;99.90;;;;;;6243183;23;20428;-68
2022/10/14 14:29:42;;;;;;;2.50;2.30;;;16.40;99.90;;;;;;6243100;22;20443;-68
2022/10/14 14:32:15;;;;;;;4.23;3.93;;;16.40;99.90;;;;;;6242560;23;20427;-69
2022/10/14 14:34:44;;;;;;;3.10;2.90;;;16.40;99.90;;;;;;6242078;23;20409;-68
2022/10/14 14:37:28;;;;;;;2.37;2.27;;;16.40;99.90;;;;;;6242708;23;20711;-69
2022/10/14 14:39:59;;;;;;;3.10;2.90;;;16.50;99.90;;;;;;6242627;22;20405;-68
2022/10/14 14:42:27;;;;;;;3.10;3.00;;;16.50;99.90;;;;;;6242531;23;20430;-69
2022/10/14 14:44:57;;;;;;;2.30;2.10;;;16.60;99.90;;;;;;6241914;23;20449;-68
2022/10/14 14:47:27;;;;;;;4.13;3.83;;;16.60;99.90;;;;;;6242200;23;20429;-69
2022/10/14 14:49:55;;;;;;;2.30;2.13;;;16.60;99.90;;;;;;6242651;22;20441;-69
2022/10/14 14:52:23;;;;;;;3.47;3.17;;;16.50;99.90;;;;;;6242232;23;20428;-68
2022/10/14 14:54:50;;;;;;;3.73;3.03;;;16.50;99.90;;;;;;6242695;23;20444;-68
2022/10/14 14:57:20;;;;;;;2.33;2.10;;;16.50;99.90;;;;;;6242815;23;20805;-68
2022/10/14 14:59:54;;;;;;;4.13;2.40;;;16.50;99.90;;;;;;6252828;22;20412;-70
2022/10/14 15:02:24;;;;;;;3.87;2.87;;;16.50;99.90;;;;;;6241295;23;20424;-68
2022/10/14 15:05:01;;;;;;;3.57;2.63;;;16.50;99.90;;;;;;6242812;23;20476;-69
2022/10/14 15:07:29;;;;;;;2.70;2.50;;;16.40;99.90;;;;;;6241811;23;20413;-67
2022/10/14 15:09:59;;;;;;;2.50;2.33;;;16.40;99.90;;;;;;6240815;22;20928;-68
2022/10/14 15:12:27;;;;;;;3.10;2.57;;;16.40;99.90;;;;;;6242462;23;20420;-68
2022/10/14 15:14:56;;;;;;;3.90;3.60;;;16.30;99.90;;;;;;6241953;23;20538;-68
2022/10/14 15:17:29;;;;;;;2.53;2.33;;;16.30;99.90;;;;;;6241364;23;20435;-67
2022/10/14 15:19:56;;;;;;;3.50;3.27;;;16.30;99.90;;;;;;6242359;22;20487;-69
2022/10/14 15:22:30;;;;;;;4.23;2.83;;;16.20;99.90;;;;;;6242369;23;20704;-66
2022/10/14 15:25:03;;;;;;;3.27;2.33;;;16.20;99.90;;;;;;6242537;23;20509;-68
2022/10/14 15:27:31;;;;;;;3.53;3.33;;;16.20;99.90;;;;;;6242700;23;20412;-69
2022/10/14 15:30:17;;;;;;;1.90;1.80;;;16.20;99.90;;;;;;6242724;22;20447;-68
2022/10/14 15:32:44;;;;;;;2.90;2.87;;;16.10;99.90;;;;;;6241347;23;20431;-68
2022/10/14 15:35:12;;;;;;;2.53;2.43;;;16.10;99.90;;;;;;6242200;23;20427;-69
2022/10/14 15:37:39;;;;;;;2.73;2.30;;;16.00;99.90;;;;;;6242666;23;20424;-69
2022/10/14 15:40:12;;;;;;;2.80;2.70;;;16.00;99.90;;;;;;6243906;22;20445;-69
2022/10/14 15:42:39;;;;;;;1.77;1.67;;;16.00;99.90;;;;;;6244420;23;20411;-67
2022/10/14 15:45:07;;;;;;;2.23;2.13;;;16.00;99.90;;;;;;6243801;23;20445;-68
2022/10/14 15:47:34;;;;;;;2.67;2.47;;;15.90;99.90;;;;;;6242778;23;20849;-69
2022/10/14 15:50:06;;;;;;;2.77;2.67;;;15.90;99.90;;;;;;6244128;22;20440;-69
2022/10/14 15:52:33;;;;;;;2.63;2.43;;;15.90;99.90;;;;;;6240082;23;20411;-67
2022/10/14 15:54:59;;;;;;;3.80;2.63;;;15.80;99.90;;;;;;6242211;23;20416;-68
2022/10/14 15:57:27;;;;;;;8.13;3.30;;;15.80;99.90;;;;;;6242968;23;21081;-68
2022/10/14 15:59:54;;;;;;;2.73;2.60;;;15.80;99.90;;;;;;6242069;22;20474;-69
2022/10/14 16:02:25;;;;;;;2.93;2.50;;;15.70;99.90;;;;;;6241448;23;20726;-69
2022/10/14 16:04:52;;;;;;;3.03;2.67;;;15.70;99.90;;;;;;6242348;23;20406;-69
2022/10/14 16:07:19;;;;;;;2.53;2.40;;;15.70;99.90;;;;;;6242103;23;20447;-69
2022/10/14 16:09:46;;;;;;;7.90;5.77;;;15.60;99.90;;;;;;6241415;22;20449;-70
2022/10/14 16:12:14;;;;;;;3.33;3.10;;;15.60;99.90;;;;;;6241739;23;20423;-69
2022/10/14 16:14:42;;;;;;;2.43;2.23;;;15.60;99.90;;;;;;6241584;23;21142;-69
2022/10/14 16:17:09;;;;;;;2.83;2.73;;;15.60;99.90;;;;;;6241393;23;20422;-69
2022/10/14 16:19:35;;;;;;;2.60;2.50;;;15.50;99.90;;;;;;6242308;23;20430;-68
2022/10/14 16:22:03;;;;;;;2.67;2.50;;;15.50;99.90;;;;;;6241350;22;20457;-69
2022/10/14 16:24:29;;;;;;;2.30;2.17;;;15.50;99.90;;;;;;6241140;23;20486;-69
2022/10/14 16:26:56;;;;;;;2.20;2.17;;;15.40;99.90;;;;;;6244415;23;20450;-69
2022/10/14 16:29:23;;;;;;;8.43;3.47;;;15.40;99.90;;;;;;6243605;23;20423;-69
2022/10/14 16:31:52;;;;;;;1.87;1.80;;;15.40;99.90;;;;;;6244042;22;20553;-68
2022/10/14 16:34:21;;;;;;;3.70;3.33;;;15.40;99.90;;;;;;6243303;23;20465;-69
2022/10/14 16:36:48;;;;;;;2.40;2.20;;;15.30;99.90;;;;;;6244125;23;20425;-68
2022/10/14 16:39:15;;;;;;;2.90;2.70;;;15.30;99.90;;;;;;6243176;23;20901;-67
2022/10/14 16:41:42;;;;;;;2.40;2.30;;;15.30;99.90;;;;;;6244964;22;20455;-71
2022/10/14 16:44:23;;;;;;;2.40;2.30;;;15.30;99.90;;;;;;6245358;23;20866;-70
2022/10/14 16:49:35;;;;;;;1.77;1.77;;;15.20;99.90;;;;;;6249670;23;20403;-70
2022/10/14 16:52:02;;;;;;;2.27;2.17;;;15.30;99.90;;;;;;6246397;22;20835;-68
2022/10/14 16:54:28;;;;;;;2.00;1.83;;;15.20;99.90;;;;;;6247235;23;20422;-70
2022/10/14 16:56:55;;;;;;;2.20;1.87;;;15.20;99.90;;;;;;6246551;23;20530;-70
2022/10/14 16:59:23;;;;;;;2.77;2.67;;;15.20;99.90;;;;;;6242374;23;20518;-68
2022/10/14 17:01:52;;;;;;;2.20;2.10;;;15.10;99.90;;;;;;6256013;22;20445;-69
2022/10/14 17:04:19;;;;;;;1.40;1.40;;;15.10;99.90;;;;;;6245361;23;20423;-69
2022/10/14 17:06:46;;;;;;;2.80;2.67;;;15.10;99.90;;;;;;6243692;23;20461;-69